Weather reports worldwide

Advertisment
Apt, France (7657): temperature & dewpoint: 20.03.2019 20:00:00 - 26.03.2019 20:00:00 (CET)Apt, France (7657): wind speed & gusts: 20.03.2019 20:00:00 - 26.03.2019 20:00:00 (CET)Apt, France (7657): wind direction: 20.03.2019 20:00:00 - 26.03.2019 20:00:00 (CET)Apt, France (7657): precipitation: 20.03.2019 20:00:00 - 26.03.2019 20:00:00 (CET)
Date & Time tt [°C] td [°C] ff [km/h] ff [kn] fx [km/h] fx [kn] dd rr [mm]
26.03.2019 20:00:00 - - - - - - - -
26.03.2019 19:00:00 8,1 -6,8 18 10 44 24 N -
26.03.2019 18:00:00 10,6 -7,7 21 11 46 25 N 0,0
26.03.2019 17:00:00 10,7 -4,9 22 12 44 24 NW 0,0
26.03.2019 16:00:00 10,9 -5,6 28 15 46 25 NW 0,0
26.03.2019 15:00:00 10,7 -5,8 26 14 50 27 NNW 0,0
26.03.2019 14:00:00 9,9 -5,3 28 15 52 28 NNW 0,0
26.03.2019 13:00:00 9,3 -5,0 29 16 54 29 NW -
26.03.2019 12:00:00 8,5 -5,0 26 14 46 25 NW 0,0
26.03.2019 11:00:00 7,6 -4,8 28 15 48 26 NNW 0,0
26.03.2019 10:00:00 6,7 -5,6 28 15 41 22 NNW 0,0
26.03.2019 09:00:00 5,7 -5,9 22 12 42 23 WNW 0,0
26.03.2019 08:00:00 5,0 -7,8 15 8 28 15 NW 0,0
26.03.2019 07:00:00 2,5 -9,4 11 6 39 21 SW -
26.03.2019 06:00:00 1,8 -9,2 11 6 39 21 W 0,0
26.03.2019 05:00:00 3,1 -9,2 21 11 63 34 NW 0,0
26.03.2019 04:00:00 3,2 -9,1 34 18 59 32 NNW 0,0
26.03.2019 03:00:00 3,6 -9,4 24 13 85 46 NNW 0,0
26.03.2019 02:00:00 4,5 -11,6 37 20 80 43 N 0,0
26.03.2019 01:00:00 5,4 -13,1 34 18 70 38 N -
26.03.2019 00:00:00 4,6 -10,3 39 21 59 32 NNW 0,0
25.03.2019 23:00:00 4,1 -8,0 18 10 52 28 NNW 0,0
25.03.2019 22:00:00 4,6 -6,0 29 16 61 33 NW 0,0
25.03.2019 21:00:00 5,3 -4,3 35 19 74 40 NW 0,0
25.03.2019 20:00:00 6,0 -2,9 39 21 74 40 NW 0,0
25.03.2019 19:00:00 6,9 -2,6 29 16 68 37 NNW -
25.03.2019 18:00:00 9,7 -1,7 42 23 74 40 NW 0,0
25.03.2019 17:00:00 11,9 -0,3 26 14 65 35 WNW 0,0
25.03.2019 16:00:00 13,2 0,6 42 23 70 38 NNW 0,0
25.03.2019 15:00:00 14,1 0,7 46 25 65 35 NNW 0,0
25.03.2019 14:00:00 14,8 0,6 28 15 50 27 NW 0,0
25.03.2019 13:00:00 14,1 1,4 31 17 54 29 NNW -
25.03.2019 12:00:00 13,1 2,0 29 16 48 26 NNW 0,0
25.03.2019 11:00:00 11,5 1,7 26 14 48 26 NNW 0,0
25.03.2019 10:00:00 10,4 2,0 34 18 50 27 NNW 0,0
25.03.2019 09:00:00 9,3 1,2 22 12 42 23 NNW 0,0
25.03.2019 08:00:00 8,0 0,0 22 12 39 21 NW 0,0
25.03.2019 07:00:00 7,2 -1,8 15 8 34 18 NW -
25.03.2019 06:00:00 6,2 -3,2 13 7 22 12 WNW 0,0
25.03.2019 05:00:00 7,1 -3,8 15 8 22 12 WNW 0,0
25.03.2019 04:00:00 7,1 -5,0 15 8 22 12 WNW 0,0
25.03.2019 03:00:00 7,7 -4,7 16 9 28 15 WNW 0,0
25.03.2019 02:00:00 7,8 -3,7 13 7 24 13 WNW 0,0
25.03.2019 01:00:00 6,9 -3,7 15 8 18 10 WNW -
25.03.2019 00:00:00 8,8 -3,1 13 7 22 12 WNW 0,0
24.03.2019 23:00:00 7,4 -2,1 13 7 18 10 WNW 0,0
24.03.2019 22:00:00 8,0 -1,8 5 3 24 13 NE 0,0
24.03.2019 21:00:00 9,0 -2,0 15 8 21 11 WNW 0,0
24.03.2019 20:00:00 12,0 -1,9 9 5 18 10 WNW 0,0
24.03.2019 19:00:00 13,7 -0,7 9 5 24 13 WNW -
24.03.2019 18:00:00 17,0 -1,7 15 8 28 15 W 0,0
24.03.2019 17:00:00 18,2 -0,1 15 8 35 19 W 0,0
24.03.2019 16:00:00 19,0 0,5 21 11 35 19 WSW 0,0
24.03.2019 15:00:00 19,6 -1,5 16 9 35 19 W 0,0
24.03.2019 14:00:00 19,7 -3,3 15 8 28 15 W 0,0
24.03.2019 13:00:00 19,6 -3,3 11 6 28 15 WSW -
24.03.2019 12:00:00 18,8 -3,4 11 6 22 12 SW 0,0
24.03.2019 11:00:00 18,6 -4,8 11 6 24 13 SW 0,0
24.03.2019 10:00:00 17,6 -1,1 8 4 16 9 E 0,0
24.03.2019 09:00:00 14,7 1,6 0 0 5 3 N 0,0
24.03.2019 08:00:00 5,7 1,6 0 0 4 2 N 0,0
24.03.2019 07:00:00 -1,8 -3,8 0 0 5 3 N -
24.03.2019 06:00:00 -2,4 -4,6 2 1 8 4 W 0,0
24.03.2019 05:00:00 -2,3 -4,5 0 0 8 4 N 0,0
24.03.2019 04:00:00 -1,8 -4,1 0 0 4 2 N 0,0
24.03.2019 03:00:00 -1,4 -3,9 0 0 4 2 N 0,0
24.03.2019 02:00:00 0,4 -2,8 4 2 8 4 WSW 0,0
24.03.2019 01:00:00 0,6 -3,3 4 2 8 4 SSE -
24.03.2019 00:00:00 0,0 -3,0 0 0 8 4 N 0,0
23.03.2019 23:00:00 2,3 -1,9 5 3 8 4 SW 0,0
23.03.2019 22:00:00 4,2 -1,6 2 1 9 5 WNW 0,0
23.03.2019 21:00:00 6,2 -1,0 0 0 15 8 N 0,0
23.03.2019 20:00:00 9,9 -0,9 8 4 16 9 W 0,0
23.03.2019 19:00:00 13,0 -0,7 9 5 26 14 WSW -
23.03.2019 18:00:00 17,4 -0,8 15 8 26 14 W 0,0
23.03.2019 17:00:00 19,0 -0,4 15 8 29 16 W 0,0
23.03.2019 16:00:00 19,8 -0,3 15 8 31 17 WSW 0,0
23.03.2019 15:00:00 20,2 -0,5 18 10 34 18 WSW 0,0
23.03.2019 14:00:00 20,5 -2,6 11 6 22 12 SW 0,0
23.03.2019 13:00:00 20,7 -2,4 8 4 22 12 S -
23.03.2019 12:00:00 19,5 -5,5 9 5 22 12 SE 0,0
23.03.2019 11:00:00 19,3 -8,0 4 2 15 8 NNW 0,0
23.03.2019 10:00:00 17,0 -3,7 5 3 16 9 N 0,0
23.03.2019 09:00:00 14,5 -4,8 4 2 9 5 NNW 0,0
23.03.2019 08:00:00 3,6 -2,8 0 0 5 3 N 0,0
23.03.2019 07:00:00 -3,0 -5,8 0 0 8 4 N -
23.03.2019 06:00:00 -4,4 -7,5 4 2 8 4 WSW 0,0
23.03.2019 05:00:00 -3,5 -6,5 0 0 4 2 N 0,0
23.03.2019 04:00:00 -3,1 -5,7 2 1 9 5 W 0,0
23.03.2019 03:00:00 -3,2 -6,7 0 0 9 5 N 0,0
23.03.2019 02:00:00 -2,7 -6,0 0 0 8 4 N 0,0
23.03.2019 01:00:00 -1,7 -5,9 2 1 11 6 N -
23.03.2019 00:00:00 -0,3 -5,1 0 0 8 4 N 0,0
22.03.2019 23:00:00 1,2 -4,7 8 4 11 6 SW 0,0
22.03.2019 22:00:00 2,5 -4,3 5 3 11 6 W 0,0
22.03.2019 21:00:00 3,9 -4,3 0 0 11 6 N 0,0
22.03.2019 20:00:00 7,8 -4,3 5 3 13 7 WNW 0,0
22.03.2019 19:00:00 11,2 -3,3 8 4 18 10 W -
22.03.2019 18:00:00 15,4 -3,0 13 7 28 15 W 0,0
22.03.2019 17:00:00 16,4 -1,7 15 8 29 16 W 0,0
22.03.2019 16:00:00 17,6 -0,7 18 10 34 18 W 0,0
22.03.2019 15:00:00 18,5 -2,5 18 10 39 21 WSW 0,0
22.03.2019 14:00:00 18,6 -1,8 21 11 35 19 SW 0,0
22.03.2019 13:00:00 18,7 -9,4 9 5 34 18 NNW -
22.03.2019 12:00:00 18,4 -8,7 18 10 29 16 NW 0,0
22.03.2019 11:00:00 17,0 -9,9 13 7 24 13 WNW 0,0
22.03.2019 10:00:00 15,9 -7,1 8 4 18 10 NW 0,0
22.03.2019 09:00:00 10,8 -3,3 8 4 13 7 N 0,0
22.03.2019 08:00:00 3,4 -1,0 0 0 4 2 N 0,0
22.03.2019 07:00:00 -4,7 -7,0 0 0 5 3 N -
22.03.2019 06:00:00 -4,9 -6,7 0 0 5 3 N 0,0
22.03.2019 05:00:00 -4,1 -7,2 0 0 4 2 N 0,0
22.03.2019 04:00:00 -4,6 -6,9 2 1 8 4 W 0,0
22.03.2019 03:00:00 -3,0 -5,3 0 0 5 3 N 0,0
22.03.2019 02:00:00 -3,2 -6,7 0 0 8 4 N 0,0
22.03.2019 01:00:00 -2,9 -6,0 0 0 5 3 N -
22.03.2019 00:00:00 -1,8 -5,6 2 1 5 3 SSW 0,0
21.03.2019 23:00:00 -1,8 -5,8 0 0 5 3 N 0,0
21.03.2019 22:00:00 0,5 -4,7 4 2 9 5 WSW 0,0
21.03.2019 21:00:00 1,5 -5,0 0 0 13 7 N 0,0
21.03.2019 20:00:00 3,1 -4,6 5 3 11 6 W 0,0
21.03.2019 19:00:00 7,2 -3,1 5 3 21 11 W -
21.03.2019 18:00:00 12,6 -2,5 11 6 21 11 WNW 0,0
21.03.2019 17:00:00 13,4 -2,2 11 6 24 13 W 0,0
21.03.2019 16:00:00 14,1 -1,2 15 8 26 14 W 0,0
21.03.2019 15:00:00 15,3 -2,2 9 5 24 13 SW 0,0
21.03.2019 14:00:00 14,5 -3,3 8 4 24 13 SE 0,0
21.03.2019 13:00:00 13,8 -4,4 9 5 24 13 SSE -
21.03.2019 12:00:00 13,1 -0,9 11 6 26 14 SE 0,0
21.03.2019 11:00:00 12,6 -2,9 4 2 22 12 ENE 0,0
21.03.2019 10:00:00 9,4 -3,2 11 6 24 13 NNW 0,0
21.03.2019 09:00:00 6,5 -1,2 9 5 15 8 N 0,0
21.03.2019 08:00:00 -0,4 -2,3 4 2 9 5 N 0,0
21.03.2019 07:00:00 -6,6 -8,0 0 0 5 3 N -
21.03.2019 06:00:00 -6,9 -8,1 0 0 5 3 N 0,0
21.03.2019 05:00:00 -6,1 -6,9 2 1 5 3 W 0,0
21.03.2019 04:00:00 -5,9 -7,7 0 0 8 4 N 0,0
21.03.2019 03:00:00 -5,4 -7,1 2 1 9 5 NW 0,0
21.03.2019 02:00:00 -4,9 -5,7 0 0 4 2 N 0,0
21.03.2019 01:00:00 -3,7 -5,4 2 1 5 3 W -
21.03.2019 00:00:00 -2,9 -5,1 2 1 8 4 SSW 0,0
20.03.2019 23:00:00 -2,5 -4,8 4 2 8 4 SW 0,0
20.03.2019 22:00:00 -0,5 -4,4 4 2 9 5 SW 0,0
20.03.2019 21:00:00 0,9 -4,2 5 3 18 10 SW 0,0
20.03.2019 20:00:00 2,5 -3,8 2 1 16 9 NNW 0,0

tt = temperature
td = dewpoint
ff = wind speed
fx = gusts
dd = wind direction
rr = precipitation

Next stations